sensor_id;sensor_type;location;lat;lon;timestamp;P1;durP1;ratioP1;P2;durP2;ratioP2
15655;SDS011;7928;43.614;1.456;2024-02-26T00:02:20;7.47;;;4.50;;
15655;SDS011;7928;43.614;1.456;2024-02-26T00:04:47;8.23;;;4.30;;
15655;SDS011;7928;43.614;1.456;2024-02-26T00:07:14;9.57;;;3.87;;
15655;SDS011;7928;43.614;1.456;2024-02-26T00:09:41;7.47;;;3.73;;
15655;SDS011;7928;43.614;1.456;2024-02-26T00:12:08;7.83;;;3.60;;
15655;SDS011;7928;43.614;1.456;2024-02-26T00:14:36;7.73;;;4.00;;
15655;SDS011;7928;43.614;1.456;2024-02-26T00:17:03;13.33;;;3.97;;
15655;SDS011;7928;43.614;1.456;2024-02-26T00:19:31;7.37;;;2.63;;
15655;SDS011;7928;43.614;1.456;2024-02-26T00:21:58;7.57;;;3.57;;
15655;SDS011;7928;43.614;1.456;2024-02-26T00:24:26;11.30;;;3.83;;
15655;SDS011;7928;43.614;1.456;2024-02-26T00:26:53;9.30;;;3.40;;
15655;SDS011;7928;43.614;1.456;2024-02-26T00:29:20;8.23;;;2.93;;
15655;SDS011;7928;43.614;1.456;2024-02-26T00:31:48;9.33;;;2.93;;
15655;SDS011;7928;43.614;1.456;2024-02-26T00:34:15;7.73;;;2.90;;
15655;SDS011;7928;43.614;1.456;2024-02-26T00:36:44;8.90;;;2.67;;
15655;SDS011;7928;43.614;1.456;2024-02-26T00:39:11;12.73;;;3.00;;
15655;SDS011;7928;43.614;1.456;2024-02-26T00:41:39;12.40;;;3.30;;
15655;SDS011;7928;43.614;1.456;2024-02-26T00:44:06;11.10;;;2.90;;
15655;SDS011;7928;43.614;1.456;2024-02-26T00:46:33;9.83;;;2.87;;
15655;SDS011;7928;43.614;1.456;2024-02-26T00:49:01;12.83;;;2.83;;
15655;SDS011;7928;43.614;1.456;2024-02-26T00:51:28;10.30;;;2.57;;
15655;SDS011;7928;43.614;1.456;2024-02-26T00:53:56;9.47;;;2.73;;
15655;SDS011;7928;43.614;1.456;2024-02-26T00:56:23;8.77;;;2.87;;
15655;SDS011;7928;43.614;1.456;2024-02-26T00:58:50;10.47;;;3.33;;
15655;SDS011;7928;43.614;1.456;2024-02-26T01:01:17;10.30;;;3.30;;
15655;SDS011;7928;43.614;1.456;2024-02-26T01:03:45;5.90;;;3.43;;
15655;SDS011;7928;43.614;1.456;2024-02-26T01:06:12;7.20;;;3.17;;
15655;SDS011;7928;43.614;1.456;2024-02-26T01:08:39;9.07;;;3.27;;
15655;SDS011;7928;43.614;1.456;2024-02-26T01:11:09;5.23;;;2.97;;
15655;SDS011;7928;43.614;1.456;2024-02-26T01:13:36;5.50;;;3.00;;
15655;SDS011;7928;43.614;1.456;2024-02-26T01:16:03;6.70;;;3.67;;
15655;SDS011;7928;43.614;1.456;2024-02-26T01:18:30;6.13;;;3.17;;
15655;SDS011;7928;43.614;1.456;2024-02-26T01:20:58;9.37;;;3.03;;
15655;SDS011;7928;43.614;1.456;2024-02-26T01:23:25;8.30;;;3.63;;
15655;SDS011;7928;43.614;1.456;2024-02-26T01:25:52;9.53;;;3.00;;
15655;SDS011;7928;43.614;1.456;2024-02-26T01:28:21;7.83;;;3.50;;
15655;SDS011;7928;43.614;1.456;2024-02-26T01:30:48;10.30;;;3.43;;
15655;SDS011;7928;43.614;1.456;2024-02-26T01:33:15;10.83;;;2.63;;
15655;SDS011;7928;43.614;1.456;2024-02-26T01:35:42;10.83;;;2.33;;
15655;SDS011;7928;43.614;1.456;2024-02-26T01:38:09;7.87;;;2.50;;
15655;SDS011;7928;43.614;1.456;2024-02-26T01:40:36;9.97;;;3.63;;
15655;SDS011;7928;43.614;1.456;2024-02-26T01:43:03;12.37;;;2.77;;
15655;SDS011;7928;43.614;1.456;2024-02-26T01:45:32;8.20;;;2.60;;
15655;SDS011;7928;43.614;1.456;2024-02-26T01:47:59;7.77;;;3.13;;
15655;SDS011;7928;43.614;1.456;2024-02-26T01:50:28;9.57;;;2.67;;
15655;SDS011;7928;43.614;1.456;2024-02-26T01:52:55;9.97;;;2.83;;
15655;SDS011;7928;43.614;1.456;2024-02-26T01:55:24;9.27;;;3.23;;
15655;SDS011;7928;43.614;1.456;2024-02-26T01:57:52;6.33;;;2.83;;
15655;SDS011;7928;43.614;1.456;2024-02-26T02:00:20;7.50;;;2.67;;
15655;SDS011;7928;43.614;1.456;2024-02-26T02:02:49;13.10;;;3.40;;
15655;SDS011;7928;43.614;1.456;2024-02-26T02:05:17;11.40;;;2.83;;
15655;SDS011;7928;43.614;1.456;2024-02-26T02:07:47;5.33;;;2.90;;
15655;SDS011;7928;43.614;1.456;2024-02-26T02:10:15;10.77;;;3.67;;
15655;SDS011;7928;43.614;1.456;2024-02-26T02:12:43;9.23;;;3.00;;
15655;SDS011;7928;43.614;1.456;2024-02-26T02:15:10;12.03;;;3.63;;
15655;SDS011;7928;43.614;1.456;2024-02-26T02:17:37;9.03;;;3.40;;
15655;SDS011;7928;43.614;1.456;2024-02-26T02:20:09;11.13;;;3.20;;
15655;SDS011;7928;43.614;1.456;2024-02-26T02:22:43;10.27;;;3.43;;
15655;SDS011;7928;43.614;1.456;2024-02-26T02:25:10;16.63;;;3.27;;
15655;SDS011;7928;43.614;1.456;2024-02-26T02:27:37;8.60;;;2.83;;
15655;SDS011;7928;43.614;1.456;2024-02-26T02:30:05;9.23;;;2.77;;
15655;SDS011;7928;43.614;1.456;2024-02-26T02:32:33;10.83;;;2.93;;
15655;SDS011;7928;43.614;1.456;2024-02-26T02:35:02;13.13;;;2.80;;
15655;SDS011;7928;43.614;1.456;2024-02-26T02:37:29;10.70;;;2.57;;
15655;SDS011;7928;43.614;1.456;2024-02-26T02:39:57;13.53;;;3.23;;
15655;SDS011;7928;43.614;1.456;2024-02-26T02:42:25;14.17;;;2.90;;
15655;SDS011;7928;43.614;1.456;2024-02-26T02:44:52;11.13;;;2.93;;
15655;SDS011;7928;43.614;1.456;2024-02-26T02:47:19;11.23;;;2.23;;
15655;SDS011;7928;43.614;1.456;2024-02-26T02:49:46;15.23;;;2.70;;
15655;SDS011;7928;43.614;1.456;2024-02-26T02:52:13;9.23;;;2.30;;
15655;SDS011;7928;43.614;1.456;2024-02-26T02:54:40;13.10;;;2.63;;
15655;SDS011;7928;43.614;1.456;2024-02-26T02:57:09;12.33;;;2.60;;
15655;SDS011;7928;43.614;1.456;2024-02-26T02:59:36;11.57;;;2.70;;
15655;SDS011;7928;43.614;1.456;2024-02-26T03:02:04;13.50;;;2.57;;
15655;SDS011;7928;43.614;1.456;2024-02-26T03:04:31;10.87;;;2.50;;
15655;SDS011;7928;43.614;1.456;2024-02-26T03:06:58;11.23;;;3.07;;
15655;SDS011;7928;43.614;1.456;2024-02-26T03:09:26;12.77;;;2.23;;
15655;SDS011;7928;43.614;1.456;2024-02-26T03:11:53;7.77;;;2.20;;
15655;SDS011;7928;43.614;1.456;2024-02-26T03:14:22;6.73;;;1.60;;
15655;SDS011;7928;43.614;1.456;2024-02-26T03:16:52;9.27;;;1.90;;
15655;SDS011;7928;43.614;1.456;2024-02-26T03:19:20;8.33;;;1.63;;
15655;SDS011;7928;43.614;1.456;2024-02-26T03:21:47;8.07;;;2.03;;
15655;SDS011;7928;43.614;1.456;2024-02-26T03:24:14;8.57;;;1.73;;
15655;SDS011;7928;43.614;1.456;2024-02-26T03:26:41;7.60;;;2.47;;
15655;SDS011;7928;43.614;1.456;2024-02-26T03:29:08;7.93;;;1.50;;
15655;SDS011;7928;43.614;1.456;2024-02-26T03:31:37;8.27;;;2.03;;
15655;SDS011;7928;43.614;1.456;2024-02-26T03:34:04;9.27;;;1.77;;
15655;SDS011;7928;43.614;1.456;2024-02-26T03:36:31;9.00;;;1.50;;
15655;SDS011;7928;43.614;1.456;2024-02-26T03:38:58;9.50;;;1.83;;
15655;SDS011;7928;43.614;1.456;2024-02-26T03:41:25;5.37;;;1.90;;
15655;SDS011;7928;43.614;1.456;2024-02-26T03:43:52;6.67;;;1.40;;
15655;SDS011;7928;43.614;1.456;2024-02-26T03:46:19;10.07;;;1.60;;
15655;SDS011;7928;43.614;1.456;2024-02-26T03:48:48;9.77;;;1.40;;
15655;SDS011;7928;43.614;1.456;2024-02-26T03:51:15;6.70;;;1.50;;
15655;SDS011;7928;43.614;1.456;2024-02-26T03:53:42;8.57;;;1.50;;
15655;SDS011;7928;43.614;1.456;2024-02-26T03:56:10;7.03;;;1.37;;
15655;SDS011;7928;43.614;1.456;2024-02-26T03:58:38;8.17;;;1.40;;
15655;SDS011;7928;43.614;1.456;2024-02-26T04:01:07;8.30;;;1.60;;
15655;SDS011;7928;43.614;1.456;2024-02-26T04:03:35;6.07;;;1.10;;
15655;SDS011;7928;43.614;1.456;2024-02-26T04:06:04;8.10;;;1.93;;
15655;SDS011;7928;43.614;1.456;2024-02-26T04:08:34;9.13;;;1.60;;
15655;SDS011;7928;43.614;1.456;2024-02-26T04:11:01;7.00;;;1.00;;
15655;SDS011;7928;43.614;1.456;2024-02-26T04:13:32;10.30;;;1.73;;
15655;SDS011;7928;43.614;1.456;2024-02-26T04:15:59;10.90;;;1.53;;
15655;SDS011;7928;43.614;1.456;2024-02-26T04:18:27;6.57;;;1.30;;
15655;SDS011;7928;43.614;1.456;2024-02-26T04:20:54;6.00;;;1.10;;
15655;SDS011;7928;43.614;1.456;2024-02-26T04:23:23;7.40;;;1.40;;
15655;SDS011;7928;43.614;1.456;2024-02-26T04:25:50;7.17;;;1.40;;
15655;SDS011;7928;43.614;1.456;2024-02-26T04:28:18;9.43;;;1.57;;
15655;SDS011;7928;43.614;1.456;2024-02-26T04:30:46;8.10;;;1.70;;
15655;SDS011;7928;43.614;1.456;2024-02-26T04:33:14;8.87;;;1.60;;
15655;SDS011;7928;43.614;1.456;2024-02-26T04:35:42;4.63;;;1.17;;
15655;SDS011;7928;43.614;1.456;2024-02-26T04:38:09;4.87;;;1.00;;
15655;SDS011;7928;43.614;1.456;2024-02-26T04:40:37;4.80;;;1.33;;
15655;SDS011;7928;43.614;1.456;2024-02-26T04:43:04;6.37;;;1.30;;
15655;SDS011;7928;43.614;1.456;2024-02-26T04:45:31;5.70;;;1.20;;
15655;SDS011;7928;43.614;1.456;2024-02-26T04:47:59;7.10;;;1.30;;
15655;SDS011;7928;43.614;1.456;2024-02-26T04:50:26;5.73;;;1.30;;
15655;SDS011;7928;43.614;1.456;2024-02-26T04:52:53;7.23;;;1.20;;
15655;SDS011;7928;43.614;1.456;2024-02-26T04:55:20;5.03;;;0.93;;
15655;SDS011;7928;43.614;1.456;2024-02-26T04:57:49;3.17;;;0.87;;
15655;SDS011;7928;43.614;1.456;2024-02-26T05:00:16;3.17;;;0.77;;
15655;SDS011;7928;43.614;1.456;2024-02-26T05:02:46;4.10;;;0.83;;
15655;SDS011;7928;43.614;1.456;2024-02-26T05:05:13;4.37;;;0.53;;
15655;SDS011;7928;43.614;1.456;2024-02-26T05:07:41;5.53;;;1.03;;
15655;SDS011;7928;43.614;1.456;2024-02-26T05:10:08;4.37;;;0.70;;
15655;SDS011;7928;43.614;1.456;2024-02-26T05:12:36;4.07;;;0.97;;
15655;SDS011;7928;43.614;1.456;2024-02-26T05:15:06;6.20;;;1.10;;
15655;SDS011;7928;43.614;1.456;2024-02-26T05:17:33;5.47;;;1.30;;
15655;SDS011;7928;43.614;1.456;2024-02-26T05:20:00;4.63;;;1.60;;
15655;SDS011;7928;43.614;1.456;2024-02-26T05:22:27;4.80;;;0.70;;
15655;SDS011;7928;43.614;1.456;2024-02-26T05:24:54;3.07;;;0.70;;
15655;SDS011;7928;43.614;1.456;2024-02-26T05:27:22;5.17;;;0.70;;
15655;SDS011;7928;43.614;1.456;2024-02-26T05:29:49;3.23;;;1.17;;
15655;SDS011;7928;43.614;1.456;2024-02-26T05:32:18;4.93;;;0.80;;
15655;SDS011;7928;43.614;1.456;2024-02-26T05:34:45;4.93;;;0.90;;
15655;SDS011;7928;43.614;1.456;2024-02-26T05:37:13;4.53;;;0.90;;
15655;SDS011;7928;43.614;1.456;2024-02-26T05:39:40;4.60;;;1.03;;
15655;SDS011;7928;43.614;1.456;2024-02-26T05:42:07;5.70;;;1.30;;
15655;SDS011;7928;43.614;1.456;2024-02-26T05:44:34;4.53;;;0.60;;
15655;SDS011;7928;43.614;1.456;2024-02-26T05:47:02;3.60;;;0.80;;
15655;SDS011;7928;43.614;1.456;2024-02-26T05:49:31;2.07;;;0.60;;
15655;SDS011;7928;43.614;1.456;2024-02-26T05:51:58;3.10;;;0.57;;
15655;SDS011;7928;43.614;1.456;2024-02-26T05:54:26;4.30;;;0.73;;
15655;SDS011;7928;43.614;1.456;2024-02-26T05:56:53;4.50;;;0.60;;
15655;SDS011;7928;43.614;1.456;2024-02-26T05:59:20;3.73;;;0.87;;
15655;SDS011;7928;43.614;1.456;2024-02-26T06:01:48;3.10;;;0.70;;
15655;SDS011;7928;43.614;1.456;2024-02-26T06:04:15;3.33;;;0.70;;
15655;SDS011;7928;43.614;1.456;2024-02-26T06:06:45;3.17;;;0.50;;
15655;SDS011;7928;43.614;1.456;2024-02-26T06:09:14;3.80;;;0.83;;
15655;SDS011;7928;43.614;1.456;2024-02-26T06:11:42;5.70;;;1.00;;
15655;SDS011;7928;43.614;1.456;2024-02-26T06:14:09;4.27;;;0.90;;
15655;SDS011;7928;43.614;1.456;2024-02-26T06:16:38;4.83;;;0.77;;
15655;SDS011;7928;43.614;1.456;2024-02-26T06:19:05;5.27;;;0.90;;
15655;SDS011;7928;43.614;1.456;2024-02-26T06:21:32;4.73;;;0.77;;
15655;SDS011;7928;43.614;1.456;2024-02-26T06:24:01;4.67;;;0.97;;
15655;SDS011;7928;43.614;1.456;2024-02-26T06:26:28;4.03;;;0.90;;
15655;SDS011;7928;43.614;1.456;2024-02-26T06:28:58;3.17;;;0.40;;
15655;SDS011;7928;43.614;1.456;2024-02-26T06:31:25;5.03;;;0.80;;
15655;SDS011;7928;43.614;1.456;2024-02-26T06:33:54;3.00;;;0.63;;
15655;SDS011;7928;43.614;1.456;2024-02-26T06:36:22;3.37;;;0.50;;
15655;SDS011;7928;43.614;1.456;2024-02-26T06:38:51;3.03;;;0.57;;
15655;SDS011;7928;43.614;1.456;2024-02-26T06:41:20;5.90;;;0.67;;
15655;SDS011;7928;43.614;1.456;2024-02-26T06:43:52;5.67;;;0.67;;
15655;SDS011;7928;43.614;1.456;2024-02-26T06:46:19;2.83;;;0.40;;
15655;SDS011;7928;43.614;1.456;2024-02-26T06:48:47;2.17;;;0.53;;
15655;SDS011;7928;43.614;1.456;2024-02-26T06:51:14;3.23;;;0.50;;
15655;SDS011;7928;43.614;1.456;2024-02-26T06:53:42;5.83;;;0.70;;
15655;SDS011;7928;43.614;1.456;2024-02-26T06:56:09;4.40;;;0.67;;
15655;SDS011;7928;43.614;1.456;2024-02-26T06:58:38;3.40;;;0.80;;
15655;SDS011;7928;43.614;1.456;2024-02-26T07:01:05;5.43;;;0.87;;
15655;SDS011;7928;43.614;1.456;2024-02-26T07:03:33;4.33;;;0.73;;
15655;SDS011;7928;43.614;1.456;2024-02-26T07:06:00;3.90;;;0.70;;
15655;SDS011;7928;43.614;1.456;2024-02-26T07:08:27;3.57;;;0.70;;
15655;SDS011;7928;43.614;1.456;2024-02-26T07:10:54;2.03;;;0.80;;
15655;SDS011;7928;43.614;1.456;2024-02-26T07:13:21;4.20;;;0.70;;
15655;SDS011;7928;43.614;1.456;2024-02-26T07:15:50;4.30;;;0.80;;
15655;SDS011;7928;43.614;1.456;2024-02-26T07:18:17;3.97;;;0.60;;
15655;SDS011;7928;43.614;1.456;2024-02-26T07:20:44;3.30;;;0.70;;
15655;SDS011;7928;43.614;1.456;2024-02-26T07:23:11;6.53;;;0.93;;
15655;SDS011;7928;43.614;1.456;2024-02-26T07:25:38;28.60;;;3.20;;
15655;SDS011;7928;43.614;1.456;2024-02-26T07:28:06;6.13;;;1.50;;
15655;SDS011;7928;43.614;1.456;2024-02-26T07:30:33;4.97;;;0.80;;
15655;SDS011;7928;43.614;1.456;2024-02-26T07:33:01;50.93;;;6.67;;
15655;SDS011;7928;43.614;1.456;2024-02-26T07:35:28;6.93;;;0.90;;
15655;SDS011;7928;43.614;1.456;2024-02-26T07:37:55;5.63;;;1.00;;
15655;SDS011;7928;43.614;1.456;2024-02-26T07:40:23;2.27;;;0.67;;
15655;SDS011;7928;43.614;1.456;2024-02-26T07:42:50;3.13;;;0.93;;
15655;SDS011;7928;43.614;1.456;2024-02-26T07:45:17;4.00;;;0.70;;
15655;SDS011;7928;43.614;1.456;2024-02-26T07:47:46;1.70;;;0.40;;
15655;SDS011;7928;43.614;1.456;2024-02-26T07:50:14;5.13;;;0.70;;
15655;SDS011;7928;43.614;1.456;2024-02-26T07:52:41;4.60;;;0.60;;
15655;SDS011;7928;43.614;1.456;2024-02-26T07:55:09;4.90;;;0.80;;
15655;SDS011;7928;43.614;1.456;2024-02-26T07:57:36;4.70;;;0.80;;
15655;SDS011;7928;43.614;1.456;2024-02-26T08:00:04;6.70;;;1.00;;
15655;SDS011;7928;43.614;1.456;2024-02-26T08:02:34;13.17;;;1.57;;
15655;SDS011;7928;43.614;1.456;2024-02-26T08:05:01;7.77;;;1.10;;
15655;SDS011;7928;43.614;1.456;2024-02-26T08:07:30;7.20;;;0.80;;
15655;SDS011;7928;43.614;1.456;2024-02-26T08:09:57;7.20;;;0.87;;
15655;SDS011;7928;43.614;1.456;2024-02-26T08:12:24;4.00;;;0.83;;
15655;SDS011;7928;43.614;1.456;2024-02-26T08:14:51;3.27;;;0.70;;
15655;SDS011;7928;43.614;1.456;2024-02-26T08:17:18;3.33;;;0.73;;
15655;SDS011;7928;43.614;1.456;2024-02-26T08:19:45;3.17;;;0.50;;
15655;SDS011;7928;43.614;1.456;2024-02-26T08:22:12;6.77;;;0.83;;
15655;SDS011;7928;43.614;1.456;2024-02-26T08:24:42;4.50;;;0.77;;
15655;SDS011;7928;43.614;1.456;2024-02-26T08:27:10;6.03;;;1.23;;
15655;SDS011;7928;43.614;1.456;2024-02-26T08:29:37;5.97;;;0.93;;
15655;SDS011;7928;43.614;1.456;2024-02-26T08:32:04;4.33;;;0.80;;
15655;SDS011;7928;43.614;1.456;2024-02-26T08:34:32;5.90;;;1.17;;
15655;SDS011;7928;43.614;1.456;2024-02-26T08:36:59;3.93;;;0.80;;
15655;SDS011;7928;43.614;1.456;2024-02-26T08:39:26;13.73;;;1.47;;
15655;SDS011;7928;43.614;1.456;2024-02-26T08:41:54;7.83;;;0.97;;
15655;SDS011;7928;43.614;1.456;2024-02-26T08:44:21;7.87;;;0.90;;
15655;SDS011;7928;43.614;1.456;2024-02-26T08:46:48;4.63;;;1.10;;
15655;SDS011;7928;43.614;1.456;2024-02-26T08:49:16;5.87;;;1.60;;
15655;SDS011;7928;43.614;1.456;2024-02-26T08:51:43;7.90;;;1.67;;
15655;SDS011;7928;43.614;1.456;2024-02-26T08:54:12;9.40;;;1.20;;
15655;SDS011;7928;43.614;1.456;2024-02-26T08:56:39;4.97;;;0.83;;
15655;SDS011;7928;43.614;1.456;2024-02-26T08:59:07;7.13;;;1.27;;
15655;SDS011;7928;43.614;1.456;2024-02-26T09:01:35;6.47;;;1.03;;
15655;SDS011;7928;43.614;1.456;2024-02-26T09:04:02;6.23;;;1.00;;
15655;SDS011;7928;43.614;1.456;2024-02-26T09:06:29;6.70;;;1.23;;
15655;SDS011;7928;43.614;1.456;2024-02-26T09:08:56;6.33;;;1.30;;
15655;SDS011;7928;43.614;1.456;2024-02-26T09:11:23;6.30;;;1.10;;
15655;SDS011;7928;43.614;1.456;2024-02-26T09:13:50;4.57;;;0.90;;
15655;SDS011;7928;43.614;1.456;2024-02-26T09:16:18;4.53;;;1.10;;
15655;SDS011;7928;43.614;1.456;2024-02-26T09:18:45;4.40;;;0.73;;
15655;SDS011;7928;43.614;1.456;2024-02-26T09:21:13;8.87;;;1.67;;
15655;SDS011;7928;43.614;1.456;2024-02-26T09:23:41;3.73;;;0.70;;
15655;SDS011;7928;43.614;1.456;2024-02-26T09:26:08;3.60;;;1.20;;
15655;SDS011;7928;43.614;1.456;2024-02-26T09:28:35;5.73;;;0.80;;
15655;SDS011;7928;43.614;1.456;2024-02-26T09:31:03;4.10;;;0.70;;
15655;SDS011;7928;43.614;1.456;2024-02-26T09:33:31;4.87;;;0.93;;
15655;SDS011;7928;43.614;1.456;2024-02-26T09:35:58;6.30;;;1.37;;
15655;SDS011;7928;43.614;1.456;2024-02-26T09:38:26;3.97;;;0.60;;
15655;SDS011;7928;43.614;1.456;2024-02-26T09:40:53;3.40;;;1.20;;
15655;SDS011;7928;43.614;1.456;2024-02-26T09:43:21;5.60;;;0.90;;
15655;SDS011;7928;43.614;1.456;2024-02-26T09:45:49;5.60;;;1.00;;
15655;SDS011;7928;43.614;1.456;2024-02-26T09:48:17;5.47;;;0.83;;
15655;SDS011;7928;43.614;1.456;2024-02-26T09:50:45;2.13;;;0.50;;
15655;SDS011;7928;43.614;1.456;2024-02-26T09:53:13;4.90;;;0.80;;
15655;SDS011;7928;43.614;1.456;2024-02-26T09:55:40;3.07;;;0.73;;
15655;SDS011;7928;43.614;1.456;2024-02-26T09:58:08;2.93;;;0.60;;
15655;SDS011;7928;43.614;1.456;2024-02-26T10:00:42;2.77;;;0.60;;
15655;SDS011;7928;43.614;1.456;2024-02-26T10:03:13;4.03;;;0.70;;
15655;SDS011;7928;43.614;1.456;2024-02-26T10:05:41;5.40;;;1.47;;
15655;SDS011;7928;43.614;1.456;2024-02-26T10:08:10;3.17;;;0.83;;
15655;SDS011;7928;43.614;1.456;2024-02-26T10:10:38;5.37;;;0.97;;
15655;SDS011;7928;43.614;1.456;2024-02-26T10:13:06;2.70;;;0.60;;
15655;SDS011;7928;43.614;1.456;2024-02-26T10:15:36;3.43;;;0.80;;
15655;SDS011;7928;43.614;1.456;2024-02-26T10:18:04;4.50;;;0.77;;
15655;SDS011;7928;43.614;1.456;2024-02-26T10:20:31;1.97;;;0.80;;
15655;SDS011;7928;43.614;1.456;2024-02-26T10:22:58;5.13;;;0.97;;
15655;SDS011;7928;43.614;1.456;2024-02-26T10:25:29;4.27;;;0.87;;
15655;SDS011;7928;43.614;1.456;2024-02-26T10:27:58;2.47;;;0.80;;
15655;SDS011;7928;43.614;1.456;2024-02-26T10:30:28;3.10;;;0.87;;
15655;SDS011;7928;43.614;1.456;2024-02-26T10:32:55;4.17;;;0.93;;
15655;SDS011;7928;43.614;1.456;2024-02-26T10:35:23;5.27;;;1.23;;
15655;SDS011;7928;43.614;1.456;2024-02-26T10:37:50;3.17;;;0.83;;
15655;SDS011;7928;43.614;1.456;2024-02-26T10:40:17;2.47;;;0.80;;
15655;SDS011;7928;43.614;1.456;2024-02-26T10:42:46;4.77;;;0.60;;
15655;SDS011;7928;43.614;1.456;2024-02-26T10:45:13;3.13;;;0.87;;
15655;SDS011;7928;43.614;1.456;2024-02-26T10:47:40;3.17;;;1.10;;
15655;SDS011;7928;43.614;1.456;2024-02-26T10:50:08;2.67;;;0.97;;
15655;SDS011;7928;43.614;1.456;2024-02-26T10:52:36;2.83;;;0.80;;
15655;SDS011;7928;43.614;1.456;2024-02-26T10:55:04;2.83;;;0.70;;
15655;SDS011;7928;43.614;1.456;2024-02-26T10:57:35;2.97;;;1.00;;
15655;SDS011;7928;43.614;1.456;2024-02-26T11:00:10;3.03;;;0.80;;
15655;SDS011;7928;43.614;1.456;2024-02-26T11:02:40;2.53;;;0.90;;
15655;SDS011;7928;43.614;1.456;2024-02-26T11:05:07;3.40;;;1.10;;
15655;SDS011;7928;43.614;1.456;2024-02-26T11:07:34;4.30;;;0.90;;
15655;SDS011;7928;43.614;1.456;2024-02-26T11:10:03;3.10;;;0.60;;
15655;SDS011;7928;43.614;1.456;2024-02-26T11:12:32;3.77;;;1.10;;
15655;SDS011;7928;43.614;1.456;2024-02-26T11:15:02;3.17;;;0.87;;
15655;SDS011;7928;43.614;1.456;2024-02-26T11:17:31;3.00;;;0.87;;
15655;SDS011;7928;43.614;1.456;2024-02-26T11:19:59;1.90;;;0.77;;
15655;SDS011;7928;43.614;1.456;2024-02-26T11:22:27;2.97;;;1.07;;
15655;SDS011;7928;43.614;1.456;2024-02-26T11:24:55;2.77;;;0.70;;
15655;SDS011;7928;43.614;1.456;2024-02-26T11:27:26;2.60;;;0.90;;
15655;SDS011;7928;43.614;1.456;2024-02-26T11:29:57;3.00;;;0.83;;
15655;SDS011;7928;43.614;1.456;2024-02-26T11:32:27;1.40;;;0.47;;
15655;SDS011;7928;43.614;1.456;2024-02-26T11:34:57;2.47;;;0.57;;
15655;SDS011;7928;43.614;1.456;2024-02-26T11:37:25;2.40;;;0.60;;
15655;SDS011;7928;43.614;1.456;2024-02-26T11:39:52;3.07;;;0.77;;
15655;SDS011;7928;43.614;1.456;2024-02-26T11:42:22;2.47;;;0.60;;
15655;SDS011;7928;43.614;1.456;2024-02-26T11:44:50;1.93;;;0.77;;
15655;SDS011;7928;43.614;1.456;2024-02-26T11:47:18;1.40;;;0.47;;
15655;SDS011;7928;43.614;1.456;2024-02-26T11:49:45;2.33;;;0.87;;
15655;SDS011;7928;43.614;1.456;2024-02-26T11:52:14;3.23;;;0.80;;
15655;SDS011;7928;43.614;1.456;2024-02-26T11:54:46;1.53;;;0.63;;
15655;SDS011;7928;43.614;1.456;2024-02-26T11:57:23;2.00;;;0.73;;
15655;SDS011;7928;43.614;1.456;2024-02-26T11:59:51;1.97;;;0.50;;
15655;SDS011;7928;43.614;1.456;2024-02-26T12:02:37;2.70;;;0.60;;
15655;SDS011;7928;43.614;1.456;2024-02-26T12:05:11;3.17;;;0.60;;
15655;SDS011;7928;43.614;1.456;2024-02-26T12:07:41;1.30;;;0.87;;
15655;SDS011;7928;43.614;1.456;2024-02-26T12:10:14;1.53;;;0.43;;
15655;SDS011;7928;43.614;1.456;2024-02-26T12:12:43;1.90;;;0.70;;
15655;SDS011;7928;43.614;1.456;2024-02-26T12:15:11;3.20;;;0.70;;
15655;SDS011;7928;43.614;1.456;2024-02-26T12:17:42;2.87;;;0.50;;
15655;SDS011;7928;43.614;1.456;2024-02-26T12:20:15;2.33;;;0.70;;
15655;SDS011;7928;43.614;1.456;2024-02-26T12:22:46;3.83;;;0.90;;
15655;SDS011;7928;43.614;1.456;2024-02-26T12:25:14;2.60;;;0.40;;
15655;SDS011;7928;43.614;1.456;2024-02-26T12:27:42;4.17;;;0.50;;
15655;SDS011;7928;43.614;1.456;2024-02-26T12:30:09;6.47;;;0.83;;
15655;SDS011;7928;43.614;1.456;2024-02-26T12:32:37;1.03;;;0.40;;
15655;SDS011;7928;43.614;1.456;2024-02-26T12:35:05;1.50;;;0.73;;
15655;SDS011;7928;43.614;1.456;2024-02-26T12:37:33;1.70;;;0.37;;
15655;SDS011;7928;43.614;1.456;2024-02-26T12:40:05;3.50;;;0.97;;
15655;SDS011;7928;43.614;1.456;2024-02-26T12:42:34;1.83;;;0.40;;
15655;SDS011;7928;43.614;1.456;2024-02-26T12:45:04;4.20;;;0.67;;
15655;SDS011;7928;43.614;1.456;2024-02-26T12:47:37;1.30;;;0.40;;
15655;SDS011;7928;43.614;1.456;2024-02-26T12:50:05;2.00;;;0.40;;
15655;SDS011;7928;43.614;1.456;2024-02-26T12:52:33;2.03;;;0.53;;
15655;SDS011;7928;43.614;1.456;2024-02-26T12:55:01;2.60;;;0.77;;
15655;SDS011;7928;43.614;1.456;2024-02-26T12:57:30;3.30;;;0.63;;
15655;SDS011;7928;43.614;1.456;2024-02-26T12:59:59;1.40;;;0.50;;
15655;SDS011;7928;43.614;1.456;2024-02-26T13:02:26;1.67;;;0.60;;
15655;SDS011;7928;43.614;1.456;2024-02-26T13:04:54;2.37;;;0.60;;
15655;SDS011;7928;43.614;1.456;2024-02-26T13:07:22;1.77;;;0.63;;
15655;SDS011;7928;43.614;1.456;2024-02-26T13:09:49;1.73;;;0.73;;
15655;SDS011;7928;43.614;1.456;2024-02-26T13:12:17;3.00;;;1.40;;
15655;SDS011;7928;43.614;1.456;2024-02-26T13:14:46;1.37;;;0.50;;
15655;SDS011;7928;43.614;1.456;2024-02-26T13:17:13;2.23;;;0.67;;
15655;SDS011;7928;43.614;1.456;2024-02-26T13:19:50;2.97;;;1.60;;
15655;SDS011;7928;43.614;1.456;2024-02-26T13:22:17;1.15;;;0.50;;
15655;SDS011;7928;43.614;1.456;2024-02-26T13:24:53;1.80;;;0.50;;
15655;SDS011;7928;43.614;1.456;2024-02-26T13:27:21;2.67;;;0.35;;
15655;SDS011;7928;43.614;1.456;2024-02-26T13:30:02;1.23;;;0.40;;
15655;SDS011;7928;43.614;1.456;2024-02-26T13:32:32;2.35;;;0.80;;
15655;SDS011;7928;43.614;1.456;2024-02-26T13:35:06;2.38;;;0.43;;
15655;SDS011;7928;43.614;1.456;2024-02-26T13:37:34;2.05;;;0.63;;
15655;SDS011;7928;43.614;1.456;2024-02-26T13:40:04;1.00;;;0.45;;
15655;SDS011;7928;43.614;1.456;2024-02-26T13:42:32;2.55;;;0.35;;
15655;SDS011;7928;43.614;1.456;2024-02-26T13:44:59;1.35;;;0.40;;
15655;SDS011;7928;43.614;1.456;2024-02-26T13:47:27;1.13;;;0.45;;
15655;SDS011;7928;43.614;1.456;2024-02-26T13:49:54;1.35;;;0.47;;
15655;SDS011;7928;43.614;1.456;2024-02-26T13:52:22;1.10;;;0.40;;
15655;SDS011;7928;43.614;1.456;2024-02-26T13:54:49;1.75;;;0.40;;
15655;SDS011;7928;43.614;1.456;2024-02-26T13:57:16;2.88;;;0.52;;
15655;SDS011;7928;43.614;1.456;2024-02-26T13:59:43;1.85;;;0.60;;
15655;SDS011;7928;43.614;1.456;2024-02-26T14:02:10;1.85;;;0.45;;
15655;SDS011;7928;43.614;1.456;2024-02-26T14:04:39;0.98;;;0.40;;
15655;SDS011;7928;43.614;1.456;2024-02-26T14:07:07;0.90;;;0.47;;
15655;SDS011;7928;43.614;1.456;2024-02-26T14:09:35;1.08;;;0.30;;
15655;SDS011;7928;43.614;1.456;2024-02-26T14:12:02;1.33;;;0.30;;
15655;SDS011;7928;43.614;1.456;2024-02-26T14:14:29;1.40;;;0.40;;
15655;SDS011;7928;43.614;1.456;2024-02-26T14:17:00;1.45;;;0.50;;
15655;SDS011;7928;43.614;1.456;2024-02-26T14:19:28;0.73;;;0.30;;
15655;SDS011;7928;43.614;1.456;2024-02-26T14:21:57;0.68;;;0.30;;
15655;SDS011;7928;43.614;1.456;2024-02-26T14:24:24;1.92;;;0.32;;
15655;SDS011;7928;43.614;1.456;2024-02-26T14:26:51;1.02;;;0.40;;
15655;SDS011;7928;43.614;1.456;2024-02-26T14:29:18;0.52;;;0.20;;
15655;SDS011;7928;43.614;1.456;2024-02-26T14:31:45;0.95;;;0.35;;
15655;SDS011;7928;43.614;1.456;2024-02-26T14:34:12;0.50;;;0.30;;
15655;SDS011;7928;43.614;1.456;2024-02-26T14:36:39;0.90;;;0.30;;
15655;SDS011;7928;43.614;1.456;2024-02-26T14:39:08;0.77;;;0.35;;
15655;SDS011;7928;43.614;1.456;2024-02-26T14:41:37;2.38;;;0.95;;
15655;SDS011;7928;43.614;1.456;2024-02-26T14:44:04;0.70;;;0.40;;
15655;SDS011;7928;43.614;1.456;2024-02-26T14:46:31;0.80;;;0.38;;
15655;SDS011;7928;43.614;1.456;2024-02-26T14:48:59;1.20;;;0.40;;
15655;SDS011;7928;43.614;1.456;2024-02-26T14:51:26;0.65;;;0.20;;
15655;SDS011;7928;43.614;1.456;2024-02-26T14:53:53;3.45;;;0.60;;
15655;SDS011;7928;43.614;1.456;2024-02-26T14:56:21;0.82;;;0.30;;
15655;SDS011;7928;43.614;1.456;2024-02-26T14:58:50;1.23;;;0.32;;
15655;SDS011;7928;43.614;1.456;2024-02-26T15:01:17;0.30;;;0.30;;
15655;SDS011;7928;43.614;1.456;2024-02-26T15:03:44;1.90;;;0.30;;
15655;SDS011;7928;43.614;1.456;2024-02-26T15:06:12;0.85;;;0.40;;